createdAt,value
2018-09-21T00:02:08.034Z,8.53
2018-09-21T00:04:36.711Z,8.80
2018-09-21T00:07:05.408Z,6.10
2018-09-21T00:09:34.119Z,6.57
2018-09-21T00:12:02.877Z,8.97
2018-09-21T00:14:32.371Z,7.33
2018-09-21T00:17:01.175Z,7.17
2018-09-21T00:19:30.105Z,7.07
2018-09-21T00:21:58.785Z,7.73
2018-09-21T00:24:27.715Z,7.53
2018-09-21T00:26:56.423Z,8.20
2018-09-21T00:29:25.184Z,7.10
2018-09-21T00:31:53.844Z,9.70
2018-09-21T00:34:22.645Z,7.40
2018-09-21T00:36:51.363Z,5.80
2018-09-21T00:39:20.084Z,4.30
2018-09-21T00:41:48.772Z,7.73
2018-09-21T00:44:17.455Z,10.13
2018-09-21T00:46:46.243Z,7.27
2018-09-21T00:49:14.925Z,7.33
2018-09-21T00:51:43.624Z,5.77
2018-09-21T00:54:12.498Z,6.97
2018-09-21T00:56:41.290Z,5.87
2018-09-21T00:59:10.170Z,6.10
2018-09-21T01:01:38.821Z,7.90
2018-09-21T01:04:07.467Z,6.87
2018-09-21T01:06:36.312Z,5.57
2018-09-21T01:09:07.833Z,12.87
2018-09-21T01:11:36.851Z,6.27
2018-09-21T01:14:05.597Z,5.77
2018-09-21T01:16:34.285Z,7.67
2018-09-21T01:19:03.356Z,8.17
2018-09-21T01:21:32.160Z,4.87
2018-09-21T01:24:00.871Z,7.83
2018-09-21T01:26:29.572Z,7.00
2018-09-21T01:28:58.252Z,7.57
2018-09-21T01:31:27.068Z,9.50
2018-09-21T01:33:55.725Z,8.93
2018-09-21T01:36:24.381Z,10.40
2018-09-21T01:38:53.209Z,5.27
2018-09-21T01:41:21.874Z,6.83
2018-09-21T01:43:50.537Z,6.47
2018-09-21T01:46:19.202Z,6.37
2018-09-21T01:48:47.851Z,7.53
2018-09-21T01:51:16.513Z,4.17
2018-09-21T01:53:45.189Z,5.67
2018-09-21T01:56:13.860Z,6.80
2018-09-21T01:58:42.574Z,6.30
2018-09-21T02:01:11.433Z,6.17
2018-09-21T02:03:40.105Z,6.13
2018-09-21T02:06:08.837Z,6.33
2018-09-21T02:08:37.614Z,9.27
2018-09-21T02:11:06.699Z,7.53
2018-09-21T02:13:35.401Z,6.07
2018-09-21T02:16:04.053Z,8.17
2018-09-21T02:18:32.764Z,6.13
2018-09-21T02:21:01.487Z,4.97
2018-09-21T02:23:30.158Z,7.57
2018-09-21T02:25:58.834Z,9.97
2018-09-21T02:28:27.866Z,7.93
2018-09-21T02:30:56.562Z,8.27
2018-09-21T02:33:25.380Z,5.27
2018-09-21T02:35:54.184Z,6.73
2018-09-21T02:38:23.311Z,7.53
2018-09-21T02:40:52.189Z,7.00
2018-09-21T02:43:20.863Z,5.30
2018-09-21T02:45:49.560Z,5.23
2018-09-21T02:48:18.203Z,6.73
2018-09-21T02:50:46.885Z,4.10
2018-09-21T02:53:15.595Z,4.77
2018-09-21T02:55:44.279Z,4.93
2018-09-21T02:58:12.878Z,11.77
2018-09-21T03:00:41.963Z,6.50
2018-09-21T03:03:10.732Z,7.10
2018-09-21T03:05:39.686Z,6.10
2018-09-21T03:08:08.402Z,5.73
2018-09-21T03:10:37.105Z,5.27
2018-09-21T03:13:06.220Z,4.30
2018-09-21T03:15:34.915Z,4.63
2018-09-21T03:18:03.654Z,6.53
2018-09-21T03:20:32.496Z,3.93
2018-09-21T03:23:01.167Z,5.60
2018-09-21T03:25:29.819Z,5.23
2018-09-21T03:27:58.475Z,6.80
2018-09-21T03:30:27.331Z,4.47
2018-09-21T03:32:55.977Z,4.80
2018-09-21T03:35:24.830Z,7.07
2018-09-21T03:37:53.532Z,6.33
2018-09-21T03:40:22.297Z,6.87
2018-09-21T03:42:51.429Z,7.50
2018-09-21T03:45:20.193Z,5.43
2018-09-21T03:47:48.825Z,7.57
2018-09-21T03:50:17.491Z,7.23
2018-09-21T03:52:46.134Z,4.77
2018-09-21T03:55:15.039Z,6.17
2018-09-21T03:57:43.689Z,5.77
2018-09-21T04:00:12.405Z,8.17
2018-09-21T04:02:41.138Z,4.77
2018-09-21T04:05:09.832Z,7.17
2018-09-21T04:07:38.646Z,5.47
2018-09-21T04:10:07.340Z,6.03
2018-09-21T04:12:36.282Z,7.73
2018-09-21T04:15:05.854Z,6.20
2018-09-21T04:17:34.541Z,4.57
2018-09-21T04:20:03.236Z,5.23
2018-09-21T04:22:32.306Z,6.37
2018-09-21T04:25:01.346Z,6.07
2018-09-21T04:27:30.174Z,4.70
2018-09-21T04:29:58.838Z,9.27
2018-09-21T04:32:27.529Z,6.83
2018-09-21T04:34:56.474Z,5.20
2018-09-21T04:37:25.162Z,10.40
2018-09-21T04:39:53.830Z,5.83
2018-09-21T04:42:22.714Z,6.40
2018-09-21T04:44:51.422Z,4.70
2018-09-21T04:47:20.232Z,5.80
2018-09-21T04:49:48.930Z,7.87
2018-09-21T04:52:17.866Z,5.67
2018-09-21T04:54:46.584Z,12.60
2018-09-21T04:57:15.500Z,5.47
2018-09-21T04:59:44.186Z,8.33
2018-09-21T05:02:12.866Z,6.47
2018-09-21T05:04:41.598Z,7.53
2018-09-21T05:07:10.260Z,7.83
2018-09-21T05:09:39.049Z,6.47
2018-09-21T05:12:07.956Z,6.13
2018-09-21T05:14:36.646Z,5.37
2018-09-21T05:17:05.410Z,5.47
2018-09-21T05:19:34.093Z,4.37
2018-09-21T05:22:02.761Z,12.27
2018-09-21T05:24:31.396Z,5.33
2018-09-21T05:27:00.306Z,8.37
2018-09-21T05:29:29.267Z,8.40
2018-09-21T05:31:57.948Z,5.87
2018-09-21T05:34:26.675Z,4.93
2018-09-21T05:36:55.248Z,6.17
2018-09-21T05:39:24.880Z,8.17
2018-09-21T05:41:53.658Z,6.03
2018-09-21T05:44:22.377Z,6.23
2018-09-21T05:46:51.178Z,4.87
2018-09-21T05:49:20.150Z,7.03
2018-09-21T05:51:48.999Z,6.77
2018-09-21T05:54:17.672Z,6.37
2018-09-21T05:56:47.451Z,5.60
2018-09-21T05:59:16.254Z,6.90
2018-09-21T06:01:45.157Z,5.80
2018-09-21T06:04:13.969Z,6.77
2018-09-21T06:06:43.168Z,4.33
2018-09-21T06:09:13.320Z,6.57
2018-09-21T06:11:42.728Z,8.13
2018-09-21T06:14:12.056Z,5.83
2018-09-21T06:16:41.084Z,6.53
2018-09-21T06:19:09.764Z,10.67
2018-09-21T06:21:39.008Z,7.10
2018-09-21T06:24:07.789Z,8.47
2018-09-21T06:26:36.682Z,5.50
2018-09-21T06:29:05.790Z,6.53
2018-09-21T06:31:34.668Z,8.40
2018-09-21T06:34:03.478Z,4.80
2018-09-21T06:36:32.140Z,6.83
2018-09-21T06:39:01.235Z,3.83
2018-09-21T06:41:30.299Z,6.50
2018-09-21T06:43:59.124Z,7.17
2018-09-21T06:46:28.144Z,8.57
2018-09-21T06:48:57.365Z,4.90
2018-09-21T06:51:26.350Z,10.27
2018-09-21T06:53:55.037Z,9.07
2018-09-21T06:56:23.817Z,4.33
2018-09-21T06:58:52.612Z,9.50
2018-09-21T07:01:21.387Z,7.53
2018-09-21T07:03:51.370Z,11.67
2018-09-21T07:06:20.094Z,9.00
2018-09-21T07:08:48.800Z,6.60
2018-09-21T07:11:17.461Z,3.93
2018-09-21T07:13:46.184Z,11.23
2018-09-21T07:16:14.828Z,10.20
2018-09-21T07:18:44.063Z,7.57
2018-09-21T07:21:12.855Z,6.13
2018-09-21T07:23:41.646Z,9.50
2018-09-21T07:26:10.428Z,5.13
2018-09-21T07:28:39.097Z,7.70
2018-09-21T07:31:07.889Z,9.73
2018-09-21T07:33:36.560Z,6.93
2018-09-21T07:36:05.352Z,7.03
2018-09-21T07:38:34.068Z,7.13
2018-09-21T07:41:02.762Z,10.20
2018-09-21T07:43:31.866Z,9.00
2018-09-21T07:46:00.551Z,6.37
2018-09-21T07:48:29.249Z,5.93
2018-09-21T07:50:58.027Z,8.47
2018-09-21T07:53:26.738Z,8.23
2018-09-21T07:55:55.758Z,12.20
2018-09-21T07:58:24.520Z,9.93
2018-09-21T08:00:53.343Z,14.13
2018-09-21T08:03:22.320Z,17.10
2018-09-21T08:05:51.194Z,18.80
2018-09-21T08:08:19.872Z,25.80
2018-09-21T08:10:48.554Z,13.17
2018-09-21T08:13:17.273Z,14.33
2018-09-21T08:15:45.982Z,8.43
2018-09-21T08:18:14.680Z,5.90
2018-09-21T08:20:43.342Z,15.90
2018-09-21T08:23:11.975Z,7.87
2018-09-21T08:25:40.686Z,9.33
2018-09-21T08:28:09.394Z,7.77
2018-09-21T08:30:38.094Z,8.17
2018-09-21T08:33:07.060Z,5.87
2018-09-21T08:35:35.988Z,5.47
2018-09-21T08:38:04.724Z,6.00
2018-09-21T08:40:33.482Z,5.20
2018-09-21T08:43:02.144Z,5.63
2018-09-21T08:45:30.984Z,4.40
2018-09-21T08:47:59.852Z,5.53
2018-09-21T08:50:28.635Z,4.33
2018-09-21T08:52:57.287Z,6.73
2018-09-21T08:55:26.138Z,3.70
2018-09-21T08:57:54.874Z,4.57
2018-09-21T09:00:23.559Z,4.70
2018-09-21T09:02:52.392Z,6.97
2018-09-21T09:05:23.112Z,6.23
2018-09-21T09:07:52.132Z,3.70
2018-09-21T09:10:20.793Z,4.77
2018-09-21T09:12:49.480Z,4.17
2018-09-21T09:15:18.163Z,7.77
2018-09-21T09:17:46.858Z,5.80
2018-09-21T09:20:15.504Z,5.67
2018-09-21T09:22:44.328Z,6.50
2018-09-21T09:25:13.020Z,5.33
2018-09-21T09:27:41.750Z,8.37
2018-09-21T09:30:10.736Z,3.23
2018-09-21T09:32:39.487Z,7.43
2018-09-21T09:35:08.261Z,10.40
2018-09-21T09:37:36.990Z,5.20
2018-09-21T09:40:05.836Z,12.23
2018-09-21T09:42:34.844Z,7.63
2018-09-21T09:45:03.598Z,10.33
2018-09-21T09:47:32.470Z,6.27
2018-09-21T09:50:01.175Z,10.67
2018-09-21T09:52:29.827Z,5.77
2018-09-21T09:54:58.731Z,10.73
2018-09-21T09:57:27.498Z,7.27
2018-09-21T09:59:56.409Z,7.80
2018-09-21T10:02:25.306Z,10.80
2018-09-21T10:04:54.132Z,10.13
2018-09-21T10:07:23.076Z,13.00
2018-09-21T10:09:51.845Z,16.47
2018-09-21T10:12:20.836Z,12.40
2018-09-21T10:14:49.501Z,10.13
2018-09-21T10:17:18.382Z,9.00
2018-09-21T10:19:47.126Z,8.43
2018-09-21T10:22:15.802Z,11.83
2018-09-21T10:24:44.829Z,7.63
2018-09-21T10:27:13.573Z,13.73
2018-09-21T10:29:42.313Z,8.23
2018-09-21T10:32:11.026Z,8.57
2018-09-21T10:34:39.688Z,13.60
2018-09-21T10:37:08.382Z,7.27
2018-09-21T10:39:37.044Z,10.47
2018-09-21T10:42:05.832Z,8.37
2018-09-21T10:44:34.592Z,11.77
2018-09-21T10:47:03.312Z,7.63
2018-09-21T10:49:31.982Z,11.33
2018-09-21T10:52:00.665Z,7.17
2018-09-21T10:54:29.340Z,5.37
2018-09-21T10:56:57.991Z,5.93
2018-09-21T10:59:26.708Z,7.50
2018-09-21T11:01:55.598Z,7.40
2018-09-21T11:04:24.390Z,6.17
2018-09-21T11:06:53.170Z,13.13
2018-09-21T11:09:21.857Z,7.37
2018-09-21T11:11:50.519Z,8.70
2018-09-21T11:14:19.346Z,8.77
2018-09-21T11:16:48.775Z,6.63
2018-09-21T11:19:17.539Z,7.53
2018-09-21T11:21:46.572Z,6.83
2018-09-21T11:24:15.463Z,6.13
2018-09-21T11:26:44.180Z,8.10
2018-09-21T11:29:13.100Z,4.53
2018-09-21T11:31:42.094Z,5.30
2018-09-21T11:34:11.028Z,4.23
2018-09-21T11:36:39.711Z,7.87
2018-09-21T11:39:09.695Z,6.87
2018-09-21T11:41:38.647Z,4.57
2018-09-21T11:44:07.636Z,5.57
2018-09-21T11:46:36.508Z,3.57
2018-09-21T11:49:05.261Z,6.63
2018-09-21T11:51:33.947Z,6.17
2018-09-21T11:54:02.697Z,4.60
2018-09-21T11:56:31.419Z,2.80
2018-09-21T11:59:00.066Z,3.87
2018-09-21T12:01:28.870Z,3.23
2018-09-21T12:03:57.580Z,4.33
2018-09-21T12:06:26.466Z,3.57
2018-09-21T12:08:55.304Z,2.77
2018-09-21T12:11:24.232Z,2.73
2018-09-21T12:13:52.979Z,5.47
2018-09-21T12:16:21.853Z,3.23
2018-09-21T12:18:50.616Z,2.53
2018-09-21T12:21:19.391Z,5.50
2018-09-21T12:23:48.185Z,2.27
2018-09-21T12:26:16.942Z,3.77
2018-09-21T12:28:45.764Z,3.57
2018-09-21T12:31:14.452Z,3.03
2018-09-21T12:33:43.136Z,2.20
2018-09-21T12:36:11.891Z,3.97
2018-09-21T12:38:40.604Z,2.93
2018-09-21T12:41:09.338Z,3.47
2018-09-21T12:43:38.276Z,3.60
2018-09-21T12:46:10.227Z,3.20
2018-09-21T12:48:38.928Z,3.57
2018-09-21T12:51:07.679Z,2.63
2018-09-21T12:53:36.464Z,4.70
2018-09-21T12:56:05.155Z,3.67
2018-09-21T12:58:34.139Z,3.17
2018-09-21T13:01:02.822Z,4.37
2018-09-21T13:03:31.716Z,4.20
2018-09-21T13:06:00.370Z,2.53
2018-09-21T13:08:29.100Z,4.67
2018-09-21T13:10:57.765Z,2.70
2018-09-21T13:13:26.710Z,3.17
2018-09-21T13:15:55.804Z,2.70
2018-09-21T13:18:24.544Z,4.03
2018-09-21T13:20:53.390Z,3.63
2018-09-21T13:23:22.484Z,3.87
2018-09-21T13:25:51.182Z,3.83
2018-09-21T13:28:19.875Z,2.30
2018-09-21T13:30:48.844Z,2.37
2018-09-21T13:33:17.500Z,1.47
2018-09-21T13:35:46.749Z,2.30
2018-09-21T13:38:15.471Z,4.00
2018-09-21T13:40:44.326Z,5.43
2018-09-21T13:43:13.053Z,3.47
2018-09-21T13:45:42.058Z,2.73
2018-09-21T13:48:11.184Z,4.63
2018-09-21T13:50:39.978Z,3.20
2018-09-21T13:53:08.849Z,3.90
2018-09-21T13:55:37.562Z,1.57
2018-09-21T13:58:06.573Z,4.30
2018-09-21T14:00:35.284Z,4.17
2018-09-21T14:03:04.212Z,3.63
2018-09-21T14:05:33.077Z,5.07
2018-09-21T14:08:01.755Z,1.43
2018-09-21T14:10:30.480Z,2.00
2018-09-21T14:12:59.368Z,1.10
2018-09-21T14:15:28.240Z,3.70
2018-09-21T14:17:56.975Z,0.50
2018-09-21T14:20:25.832Z,3.30
2018-09-21T14:22:54.516Z,2.50
2018-09-21T14:25:23.238Z,1.80
2018-09-21T14:27:51.984Z,3.70
2018-09-21T14:30:20.786Z,5.60
2018-09-21T14:32:49.616Z,1.27
2018-09-21T14:35:18.486Z,3.30
2018-09-21T14:37:47.166Z,4.50
2018-09-21T14:40:16.194Z,4.17
2018-09-21T14:42:44.954Z,2.60
2018-09-21T14:45:13.685Z,1.40
2018-09-21T14:47:42.465Z,1.73
2018-09-21T14:50:11.144Z,2.57
2018-09-21T14:52:39.889Z,2.63
2018-09-21T14:55:08.983Z,5.63
2018-09-21T14:57:37.730Z,2.67
2018-09-21T15:00:07.265Z,2.13
2018-09-21T15:02:36.014Z,3.60
2018-09-21T15:05:04.782Z,3.23
2018-09-21T15:07:33.634Z,3.40
2018-09-21T15:10:02.338Z,3.37
2018-09-21T15:12:31.172Z,2.87
2018-09-21T15:14:59.847Z,3.57
2018-09-21T15:17:28.756Z,2.73
2018-09-21T15:19:57.510Z,5.60
2018-09-21T15:22:26.386Z,3.00
2018-09-21T15:24:55.102Z,2.70
2018-09-21T15:27:23.838Z,4.20
2018-09-21T15:29:52.644Z,1.90
2018-09-21T15:32:21.544Z,1.70
2018-09-21T15:34:50.241Z,2.20
2018-09-21T15:37:18.914Z,3.17
2018-09-21T15:39:47.684Z,3.07
2018-09-21T15:42:16.324Z,1.77
2018-09-21T15:44:45.050Z,3.83
2018-09-21T15:47:13.792Z,1.50
2018-09-21T15:49:42.465Z,7.70
2018-09-21T15:52:11.512Z,1.30
2018-09-21T15:54:40.294Z,3.73
2018-09-21T15:57:08.971Z,2.73
2018-09-21T15:59:37.850Z,2.53
2018-09-21T16:02:06.810Z,3.60
2018-09-21T16:04:36.454Z,2.73
2018-09-21T16:07:05.605Z,2.47
2018-09-21T16:09:34.251Z,7.83
2018-09-21T16:12:03.135Z,5.77
2018-09-21T16:14:31.946Z,4.07
2018-09-21T16:17:00.635Z,7.03
2018-09-21T16:19:29.335Z,9.83
2018-09-21T16:21:57.972Z,1.57
2018-09-21T16:24:26.648Z,1.87
2018-09-21T16:26:55.744Z,3.90
2018-09-21T16:29:24.539Z,5.27
2018-09-21T16:31:53.202Z,5.03
2018-09-21T16:34:22.004Z,4.83
2018-09-21T16:36:50.896Z,1.27
2018-09-21T16:39:19.591Z,4.53
2018-09-21T16:41:48.581Z,3.13
2018-09-21T16:44:17.339Z,3.03
2018-09-21T16:46:46.153Z,2.37
2018-09-21T16:49:15.029Z,4.53
2018-09-21T16:51:43.794Z,5.13
2018-09-21T16:54:12.929Z,3.60
2018-09-21T16:56:41.577Z,2.50
2018-09-21T16:59:10.531Z,2.57
2018-09-21T17:01:39.259Z,4.07
2018-09-21T17:04:08.281Z,2.13
2018-09-21T17:06:37.072Z,5.93
2018-09-21T17:09:08.517Z,6.67
2018-09-21T17:11:37.229Z,3.77
2018-09-21T17:14:05.862Z,0.83
2018-09-21T17:16:34.551Z,4.07
2018-09-21T17:19:03.285Z,3.43
2018-09-21T17:21:32.012Z,2.23
2018-09-21T17:24:00.653Z,2.80
2018-09-21T17:26:29.570Z,2.20
2018-09-21T17:28:58.318Z,2.07
2018-09-21T17:31:27.131Z,2.50
2018-09-21T17:33:55.992Z,1.90
2018-09-21T17:36:24.982Z,1.20
2018-09-21T17:38:53.887Z,1.50
2018-09-21T17:41:22.637Z,2.93
2018-09-21T17:43:51.657Z,2.93
2018-09-21T17:46:20.451Z,1.47
2018-09-21T17:48:49.287Z,1.07
2018-09-21T17:51:18.039Z,1.37
2018-09-21T17:53:46.713Z,2.63
2018-09-21T17:56:15.592Z,10.10
2018-09-21T17:58:44.583Z,0.90
2018-09-21T18:01:13.355Z,2.67
2018-09-21T18:03:42.145Z,3.13
2018-09-21T18:06:10.857Z,3.10
2018-09-21T18:08:39.501Z,1.63
2018-09-21T18:11:08.219Z,3.70
2018-09-21T18:13:36.899Z,1.60
2018-09-21T18:16:05.592Z,1.17
2018-09-21T18:18:34.260Z,2.03
2018-09-21T18:21:02.978Z,3.70
2018-09-21T18:23:31.799Z,2.10
2018-09-21T18:26:00.724Z,2.03
2018-09-21T18:28:29.515Z,1.33
2018-09-21T18:30:58.375Z,1.03
2018-09-21T18:33:27.089Z,1.63
2018-09-21T18:35:55.891Z,3.40
2018-09-21T18:38:25.555Z,1.80
2018-09-21T18:40:54.429Z,1.07
2018-09-21T18:43:23.219Z,1.87
2018-09-21T18:45:51.931Z,2.10
2018-09-21T18:48:20.671Z,1.87
2018-09-21T18:50:50.049Z,1.13
2018-09-21T18:53:18.672Z,1.43
2018-09-21T18:55:47.370Z,2.30
2018-09-21T18:58:16.211Z,0.90
2018-09-21T19:00:45.219Z,2.13
2018-09-21T19:03:13.916Z,1.13
2018-09-21T19:05:42.638Z,1.07
2018-09-21T19:08:11.465Z,0.87
2018-09-21T19:10:40.127Z,0.97
2018-09-21T19:13:08.838Z,0.70
2018-09-21T19:15:37.516Z,2.47
2018-09-21T19:18:06.293Z,1.53
2018-09-21T19:20:35.049Z,0.60
2018-09-21T19:23:03.717Z,0.67
2018-09-21T19:25:32.473Z,0.50
2018-09-21T19:28:01.147Z,0.90
2018-09-21T19:30:29.855Z,1.10
2018-09-21T19:32:58.686Z,1.23
2018-09-21T19:35:27.857Z,1.77
2018-09-21T19:37:56.689Z,3.20
2018-09-21T19:40:25.360Z,3.60
2018-09-21T19:42:54.297Z,1.37
2018-09-21T19:45:23.305Z,2.13
2018-09-21T19:47:51.995Z,1.07
2018-09-21T19:50:20.662Z,1.13
2018-09-21T19:52:49.473Z,1.50
2018-09-21T19:55:18.187Z,2.07
2018-09-21T19:57:47.081Z,2.60
2018-09-21T20:00:16.005Z,0.60
2018-09-21T20:02:44.823Z,0.70
2018-09-21T20:05:13.875Z,1.27
2018-09-21T20:07:42.575Z,1.50
2018-09-21T20:10:11.681Z,1.07
2018-09-21T20:12:40.475Z,1.20
2018-09-21T20:15:09.205Z,1.07
2018-09-21T20:17:38.082Z,0.90
2018-09-21T20:20:07.071Z,1.93
2018-09-21T20:22:35.796Z,1.33
2018-09-21T20:25:04.624Z,1.87
2018-09-21T20:27:33.390Z,1.17
2018-09-21T20:30:07.405Z,2.47
2018-09-21T20:32:42.039Z,0.87
2018-09-21T20:35:11.426Z,1.00
2018-09-21T20:37:40.347Z,1.03
2018-09-21T20:40:09.769Z,1.63
2018-09-21T20:42:38.508Z,0.97
2018-09-21T20:45:07.403Z,1.73
2018-09-21T20:47:36.391Z,2.10
2018-09-21T20:50:05.611Z,1.17
2018-09-21T20:52:34.547Z,1.70
2018-09-21T20:55:03.493Z,2.10
2018-09-21T20:57:32.371Z,1.27
2018-09-21T21:00:01.219Z,2.33
2018-09-21T21:02:30.429Z,1.03
2018-09-21T21:04:59.300Z,1.13
2018-09-21T21:07:28.289Z,2.33
2018-09-21T21:09:57.027Z,1.60
2018-09-21T21:12:26.171Z,0.73
2018-09-21T21:14:54.817Z,1.67
2018-09-21T21:17:23.651Z,1.40
2018-09-21T21:19:52.352Z,1.73
2018-09-21T21:22:21.229Z,1.93
2018-09-21T21:24:49.903Z,1.23
2018-09-21T21:27:18.712Z,2.90
2018-09-21T21:29:47.547Z,0.70
2018-09-21T21:32:16.424Z,1.43
2018-09-21T21:34:45.237Z,2.10
2018-09-21T21:37:14.536Z,2.87
2018-09-21T21:39:43.241Z,3.20
2018-09-21T21:42:11.940Z,1.73
2018-09-21T21:44:40.688Z,1.93
2018-09-21T21:47:09.357Z,2.50
2018-09-21T21:49:38.132Z,3.80
2018-09-21T21:52:07.332Z,1.57
2018-09-21T21:54:36.194Z,1.17
2018-09-21T21:57:05.168Z,2.63
2018-09-21T21:59:34.017Z,1.53
2018-09-21T22:02:02.750Z,1.63
2018-09-21T22:04:31.428Z,2.73
2018-09-21T22:07:00.154Z,1.37
2018-09-21T22:09:28.831Z,3.33
2018-09-21T22:12:02.817Z,2.60
2018-09-21T22:14:31.652Z,1.67
2018-09-21T22:17:00.337Z,1.73
2018-09-21T22:19:29.042Z,2.70
2018-09-21T22:21:57.728Z,1.80
2018-09-21T22:24:26.442Z,3.97
2018-09-21T22:26:55.342Z,2.60
2018-09-21T22:29:24.142Z,2.43
2018-09-21T22:31:52.864Z,3.47
2018-09-21T22:34:21.574Z,1.93
2018-09-21T22:36:50.448Z,2.20
2018-09-21T22:39:19.330Z,3.87
2018-09-21T22:41:48.109Z,1.70
2018-09-21T22:44:16.773Z,2.80
2018-09-21T22:46:45.730Z,2.37
2018-09-21T22:49:17.546Z,2.70
2018-09-21T22:51:46.247Z,1.77
2018-09-21T22:54:14.945Z,4.90
2018-09-21T22:56:43.688Z,3.87
2018-09-21T22:59:12.452Z,2.53
2018-09-21T23:01:41.164Z,4.50
2018-09-21T23:04:09.804Z,2.27
2018-09-21T23:06:38.431Z,4.23
2018-09-21T23:09:09.869Z,3.23
2018-09-21T23:11:38.888Z,3.67
2018-09-21T23:14:07.633Z,3.83
2018-09-21T23:16:36.500Z,2.30
2018-09-21T23:19:05.390Z,5.23
2018-09-21T23:21:34.254Z,2.90
2018-09-21T23:24:03.029Z,4.33
2018-09-21T23:26:32.445Z,4.80
2018-09-21T23:29:01.315Z,3.83
2018-09-21T23:31:30.002Z,3.93
2018-09-21T23:33:58.675Z,3.60
2018-09-21T23:36:27.382Z,3.97
2018-09-21T23:38:56.357Z,5.07
2018-09-21T23:41:25.235Z,6.00
2018-09-21T23:43:54.052Z,5.83
2018-09-21T23:46:22.927Z,5.20
2018-09-21T23:48:51.597Z,4.53
2018-09-21T23:51:20.646Z,4.20
2018-09-21T23:53:49.456Z,4.00
2018-09-21T23:56:18.166Z,3.37
2018-09-21T23:58:46.829Z,3.00
